San Miguel — WTE9527 — position and weather

sailwx.info

Track history (hours):
 
Tides and Currents Weather Stations Pressure Air Temp Water Temp Dewpoint Dewpoint Depression Visibility Wind Speed Wind Dir Waves Ship Positions

San Miguel

Owner: BUFFALO MARINE SERVICE INC, HOUSTON, TX. More information available from US FCC via Universal Licensing System and Coast Guard Vessel Documentation Center.

Last reported at 2018-Feb-20 11:29 UTC. Time now 2018-Feb-20 14:08 UTC.
Position N 29°21' W 094°44'.

Length 10 m; draft 2.5 m.

Type: Tug. MMSI: 366941840.

Date/timePositionNaut miles runAvg speedWind from/ knotsBaromVisibWave heightAir tempDewpointWater temp
2018-Feb-20 11:29N 29°21' W 094°44'0 0.1
2018-Feb-20 09:27N 29°21' W 094°45'9 5.3
2018-Feb-20 07:40N 29°28' W 094°51'1 6.1
2018-Feb-20 07:28N 29°30' W 094°52'3 6.3
2018-Feb-20 07:00N 29°32' W 094°54'3 6.1
2018-Feb-20 06:30N 29°35' W 094°56'3 5.5
2018-Feb-20 06:00N 29°37' W 094°57'3 5.6
2018-Feb-20 05:30N 29°40' W 094°58'2 4.4
2018-Feb-20 05:00N 29°41' W 095°00'0 0.3
2018-Feb-20 04:30N 29°41' W 095°00'0 0.0
2018-Feb-20 03:59N 29°41' W 095°00'0 0.0
2018-Feb-20 03:30N 29°41' W 095°00'0 0.0
2018-Feb-20 03:00N 29°41' W 095°00'0 0.5
2018-Feb-20 02:30N 29°41' W 095°00'1 2.3
2018-Feb-20 02:00N 29°42' W 095°01'2 4.5
2018-Feb-20 01:29N 29°44' W 095°02'3 4.8
2018-Feb-20 00:50N 29°46' W 095°05'1 2.1
2018-Feb-20 00:17N 29°47' W 095°06'0 0.5
2018-Feb-19 23:57N 29°46' W 095°06'3 4.2
2018-Feb-19 23:12N 29°44' W 095°03'0 2.3
2018-Feb-19 23:00N 29°44' W 095°03'0 0.0
2018-Feb-19 22:14N 29°44' W 095°03'0 0.0
2018-Feb-19 21:59N 29°44' W 095°03'0 0.0
2018-Feb-19 21:07N 29°44' W 095°03'0 0.0
2018-Feb-19 20:58N 29°44' W 095°03'0 0.0
2018-Feb-19 20:05N 29°44' W 095°03'0 0.4
2018-Feb-19 19:56N 29°44' W 095°03'0 0.0
2018-Feb-19 17:24N 29°44' W 095°03'0 0.0
2018-Feb-19 16:58N 29°44' W 095°03'0 0.0
2018-Feb-19 16:12N 29°44' W 095°03'0 0.0
2018-Feb-19 16:00N 29°44' W 095°03'0 0.0
2018-Feb-19 15:30N 29°44' W 095°03'0 0.0
2018-Feb-19 15:00N 29°44' W 095°03'0 0.0
2018-Feb-19 14:30N 29°44' W 095°03'0 0.0
2018-Feb-19 14:00N 29°44' W 095°03'1 1.9
2018-Feb-19 13:30N 29°44' W 095°02'3 5.7
2018-Feb-19 13:00N 29°42' W 094°60'3 6.3
2018-Feb-19 12:30N 29°39' W 094°58'3 6.6
2018-Feb-19 12:00N 29°36' W 094°57'3 6.4
2018-Feb-19 11:28N 29°33' W 094°55'3 6.7
2018-Feb-19 11:00N 29°31' W 094°53'4 6.8
2018-Feb-19 10:24N 29°27' W 094°50'3 6.9
2018-Feb-19 09:59N 29°24' W 094°49'4 7.1
2018-Feb-19 09:29N 29°21' W 094°47'2 4.0
2018-Feb-19 08:59N 29°19' W 094°47'0 0.1
2018-Feb-19 08:30N 29°19' W 094°47'0 0.0
2018-Feb-19 08:00N 29°19' W 094°47'0 0.0
2018-Feb-19 07:30N 29°19' W 094°47'0 0.0
2018-Feb-19 07:00N 29°19' W 094°47'0 0.0
2018-Feb-19 06:30N 29°19' W 094°47'0 0.0
2018-Feb-19 05:56N 29°19' W 094°47'0 0.0
2018-Feb-19 05:30N 29°19' W 094°47'0 0.0
2018-Feb-19 05:00N 29°19' W 094°47'0 0.0
2018-Feb-19 04:30N 29°19' W 094°47'0 0.0
2018-Feb-19 03:54N 29°19' W 094°47'0 0.0
2018-Feb-18 18:26N 29°19' W 094°47'0 0.0
2018-Feb-18 17:57N 29°19' W 094°47'0 0.0
2018-Feb-18 14:35N 29°19' W 094°47'  
2018-Feb-16 08:24N 29°08' W 095°10'0 0.0
2018-Feb-16 07:57N 29°08' W 095°10'0 0.0
2018-Feb-16 07:31N 29°08' W 095°10'0 0.0
2018-Feb-16 07:00N 29°08' W 095°10'0 0.0
2018-Feb-16 06:27N 29°08' W 095°10'0 0.0
2018-Feb-16 06:00N 29°08' W 095°10'0 0.0
2018-Feb-16 05:30N 29°08' W 095°10'0 0.0
2018-Feb-16 05:01N 29°08' W 095°10'0 0.0
2018-Feb-16 04:30N 29°08' W 095°10'0 0.0
2018-Feb-16 04:00N 29°08' W 095°10'0 0.0
2018-Feb-16 03:30N 29°08' W 095°10'0 0.0
2018-Feb-16 03:00N 29°08' W 095°10'0 0.0
2018-Feb-16 02:30N 29°08' W 095°10'0 0.0
2018-Feb-16 01:56N 29°08' W 095°10'0 0.0
2018-Feb-16 01:22N 29°08' W 095°10'0 0.0
2018-Feb-16 00:54N 29°08' W 095°10'0 0.0
2018-Feb-16 00:30N 29°08' W 095°10'0 0.0
2018-Feb-15 23:47N 29°08' W 095°10'1 2.4
2018-Feb-15 23:18N 29°09' W 095°09'2 3.7
2018-Feb-15 22:41N 29°10' W 095°07'4 4.4
2018-Feb-15 21:52N 29°12' W 095°03'16 1.2
2018-Feb-15 09:02N 29°19' W 094°47'0 0.0
2018-Feb-15 05:32N 29°19' W 094°47'0 0.1
2018-Feb-15 05:28N 29°19' W 094°47'0 0.0
2018-Feb-15 04:55N 29°19' W 094°47'0 0.0
2018-Feb-15 04:27N 29°19' W 094°47'0 0.0
2018-Feb-15 04:00N 29°19' W 094°47'0 0.0
2018-Feb-15 03:29N 29°19' W 094°47'0 0.0
2018-Feb-15 02:58N 29°19' W 094°47'0 0.0
2018-Feb-15 02:26N 29°19' W 094°47'2 0.6
2018-Feb-14 23:58N 29°21' W 094°47'2 3.6
2018-Feb-14 23:27N 29°22' W 094°48'2 3.5
2018-Feb-14 22:56N 29°24' W 094°49'3 4.2
2018-Feb-14 22:18N 29°26' W 094°50'3 5.2
2018-Feb-14 21:42N 29°29' W 094°52'2 5.3
2018-Feb-14 21:20N 29°31' W 094°53'2 5.2
2018-Feb-14 21:00N 29°32' W 094°54'3 5.8
2018-Feb-14 20:31N 29°35' W 094°56'3 5.7
2018-Feb-14 20:00N 29°37' W 094°57'3 6.1
2018-Feb-14 19:31N 29°40' W 094°59'3 6.2
2018-Feb-14 19:00N 29°42' W 095°01'3 5.3
2018-Feb-14 18:23N 29°45' W 095°04'2 4.3
2018-Feb-14 17:57N 29°46' W 095°05'5 0.1
2018-Feb-13 02:06N 29°42' W 095°01'1 5.9
2018-Feb-13 01:57N 29°42' W 094°60'3 5.9
2018-Feb-13 01:31N 29°40' W 094°58'3 6.2
2018-Feb-13 01:00N 29°37' W 094°57'3 6.4
2018-Feb-13 00:31N 29°34' W 094°55'5 0.3
2018-Feb-12 08:34N 29°30' W 094°52'1 4.7
2018-Feb-12 08:19N 29°31' W 094°53'1 4.6
2018-Feb-12 08:00N 29°32' W 094°54'2 4.9
2018-Feb-12 07:30N 29°34' W 094°56'2 5.0
2018-Feb-12 07:00N 29°36' W 094°57'3 5.2
2018-Feb-12 06:29N 29°39' W 094°58'2 5.0
2018-Feb-12 06:01N 29°41' W 094°59'1 1.4
2018-Feb-12 05:30N 29°41' W 095°00'0 0.0
2018-Feb-12 05:01N 29°41' W 095°00'0 0.0
2018-Feb-12 04:30N 29°41' W 095°00'0 0.0
2018-Feb-12 04:00N 29°41' W 095°00'0 0.1
2018-Feb-12 03:30N 29°41' W 095°00'0 0.0
2018-Feb-12 03:00N 29°41' W 095°00'0 0.0
2018-Feb-12 02:31N 29°41' W 095°00'0 0.0
2018-Feb-12 02:00N 29°41' W 095°00'0 0.0
2018-Feb-12 01:31N 29°41' W 095°00'0 0.9
2018-Feb-12 01:01N 29°41' W 094°60'1 2.4
2018-Feb-12 00:31N 29°40' W 094°59'3 5.5
2018-Feb-12 00:00N 29°38' W 094°58'3 5.9
2018-Feb-11 23:30N 29°35' W 094°56'6 0.4
2018-Feb-11 08:15N 29°30' W 094°52'2 6.2
2018-Feb-11 07:58N 29°31' W 094°53'3 5.8
2018-Feb-11 07:30N 29°34' W 094°55'3 5.6
2018-Feb-11 07:00N 29°36' W 094°57'3 5.7
2018-Feb-11 06:31N 29°39' W 094°58'3 5.1
2018-Feb-11 06:01N 29°41' W 094°59'1 1.4
2018-Feb-11 05:30N 29°41' W 095°00'0 0.0
2018-Feb-11 05:00N 29°41' W 095°00'0 0.0
2018-Feb-11 04:30N 29°41' W 095°00'0 0.0
2018-Feb-11 03:59N 29°41' W 095°00'0 0.0
2018-Feb-11 03:30N 29°41' W 095°00'0 0.0
2018-Feb-11 03:00N 29°41' W 095°00'0 0.0
2018-Feb-11 02:29N 29°41' W 095°00'0 0.0
2018-Feb-11 02:00N 29°41' W 095°00'0 0.0
2018-Feb-11 01:30N 29°41' W 095°00'0 0.0
2018-Feb-11 01:00N 29°41' W 095°00'0 0.0
2018-Feb-11 00:30N 29°41' W 095°00'0 0.0
2018-Feb-11 00:00N 29°41' W 095°00'0 0.0
2018-Feb-10 23:31N 29°41' W 095°00'0 0.0
2018-Feb-10 23:01N 29°41' W 095°00'0 0.0
2018-Feb-10 22:31N 29°41' W 095°00'0 0.0
2018-Feb-10 22:00N 29°41' W 095°00'0 0.0
2018-Feb-10 21:30N 29°41' W 095°00'0 0.0
2018-Feb-10 21:01N 29°41' W 095°00'0 0.0
2018-Feb-10 20:30N 29°41' W 095°00'0 0.0
2018-Feb-10 20:00N 29°41' W 095°00'0 0.0
2018-Feb-10 19:30N 29°41' W 095°00'0 0.6
2018-Feb-10 19:00N 29°41' W 094°60'1 2.1
2018-Feb-10 18:30N 29°40' W 094°59'  
Track history (hours):
 
Tides and Currents Weather Stations Pressure Air Temp Water Temp Dewpoint Dewpoint Depression Visibility Wind Speed Wind Dir Waves Ship Positions

San Miguel

Owner: BUFFALO MARINE SERVICE INC, HOUSTON, TX. More information available from US FCC via Universal Licensing System and Coast Guard Vessel Documentation Center.

Last reported at 2018-Feb-20 11:29 UTC. Time now 2018-Feb-20 14:08 UTC.
Position N 29°21' W 094°44'.

Length 10 m; draft 2.5 m.

Type: Tug. MMSI: 366941840.

Date/timePositionNaut miles runAvg speedWind from/ knotsBaromVisibWave heightAir tempDewpointWater temp
2018-Feb-20 11:29N 29°21' W 094°44'0 0.1
2018-Feb-20 09:27N 29°21' W 094°45'9 5.3
2018-Feb-20 07:40N 29°28' W 094°51'1 6.1
2018-Feb-20 07:28N 29°30' W 094°52'3 6.3
2018-Feb-20 07:00N 29°32' W 094°54'3 6.1
2018-Feb-20 06:30N 29°35' W 094°56'3 5.5
2018-Feb-20 06:00N 29°37' W 094°57'3 5.6
2018-Feb-20 05:30N 29°40' W 094°58'2 4.4
2018-Feb-20 05:00N 29°41' W 095°00'0 0.3
2018-Feb-20 04:30N 29°41' W 095°00'0 0.0
2018-Feb-20 03:59N 29°41' W 095°00'0 0.0
2018-Feb-20 03:30N 29°41' W 095°00'0 0.0
2018-Feb-20 03:00N 29°41' W 095°00'0 0.5
2018-Feb-20 02:30N 29°41' W 095°00'1 2.3
2018-Feb-20 02:00N 29°42' W 095°01'2 4.5
2018-Feb-20 01:29N 29°44' W 095°02'3 4.8
2018-Feb-20 00:50N 29°46' W 095°05'1 2.1
2018-Feb-20 00:17N 29°47' W 095°06'0 0.5
2018-Feb-19 23:57N 29°46' W 095°06'3 4.2
2018-Feb-19 23:12N 29°44' W 095°03'0 2.3
2018-Feb-19 23:00N 29°44' W 095°03'0 0.0
2018-Feb-19 22:14N 29°44' W 095°03'0 0.0
2018-Feb-19 21:59N 29°44' W 095°03'0 0.0
2018-Feb-19 21:07N 29°44' W 095°03'0 0.0
2018-Feb-19 20:58N 29°44' W 095°03'0 0.0
2018-Feb-19 20:05N 29°44' W 095°03'0 0.4
2018-Feb-19 19:56N 29°44' W 095°03'0 0.0
2018-Feb-19 17:24N 29°44' W 095°03'0 0.0
2018-Feb-19 16:58N 29°44' W 095°03'0 0.0
2018-Feb-19 16:12N 29°44' W 095°03'0 0.0
2018-Feb-19 16:00N 29°44' W 095°03'0 0.0
2018-Feb-19 15:30N 29°44' W 095°03'0 0.0
2018-Feb-19 15:00N 29°44' W 095°03'0 0.0
2018-Feb-19 14:30N 29°44' W 095°03'0 0.0
2018-Feb-19 14:00N 29°44' W 095°03'1 1.9
2018-Feb-19 13:30N 29°44' W 095°02'3 5.7
2018-Feb-19 13:00N 29°42' W 094°60'3 6.3
2018-Feb-19 12:30N 29°39' W 094°58'3 6.6
2018-Feb-19 12:00N 29°36' W 094°57'3 6.4
2018-Feb-19 11:28N 29°33' W 094°55'3 6.7
2018-Feb-19 11:00N 29°31' W 094°53'4 6.8
2018-Feb-19 10:24N 29°27' W 094°50'3 6.9
2018-Feb-19 09:59N 29°24' W 094°49'4 7.1
2018-Feb-19 09:29N 29°21' W 094°47'2 4.0
2018-Feb-19 08:59N 29°19' W 094°47'0 0.1
2018-Feb-19 08:30N 29°19' W 094°47'0 0.0
2018-Feb-19 08:00N 29°19' W 094°47'0 0.0
2018-Feb-19 07:30N 29°19' W 094°47'0 0.0
2018-Feb-19 07:00N 29°19' W 094°47'0 0.0
2018-Feb-19 06:30N 29°19' W 094°47'0 0.0
2018-Feb-19 05:56N 29°19' W 094°47'0 0.0
2018-Feb-19 05:30N 29°19' W 094°47'0 0.0
2018-Feb-19 05:00N 29°19' W 094°47'0 0.0
2018-Feb-19 04:30N 29°19' W 094°47'0 0.0
2018-Feb-19 03:54N 29°19' W 094°47'0 0.0
2018-Feb-18 18:26N 29°19' W 094°47'0 0.0
2018-Feb-18 17:57N 29°19' W 094°47'0 0.0
2018-Feb-18 14:35N 29°19' W 094°47'  
2018-Feb-16 08:24N 29°08' W 095°10'0 0.0
2018-Feb-16 07:57N 29°08' W 095°10'0 0.0
2018-Feb-16 07:31N 29°08' W 095°10'0 0.0
2018-Feb-16 07:00N 29°08' W 095°10'0 0.0
2018-Feb-16 06:27N 29°08' W 095°10'0 0.0
2018-Feb-16 06:00N 29°08' W 095°10'0 0.0
2018-Feb-16 05:30N 29°08' W 095°10'0 0.0
2018-Feb-16 05:01N 29°08' W 095°10'0 0.0
2018-Feb-16 04:30N 29°08' W 095°10'0 0.0
2018-Feb-16 04:00N 29°08' W 095°10'0 0.0
2018-Feb-16 03:30N 29°08' W 095°10'0 0.0
2018-Feb-16 03:00N 29°08' W 095°10'0 0.0
2018-Feb-16 02:30N 29°08' W 095°10'0 0.0
2018-Feb-16 01:56N 29°08' W 095°10'0 0.0
2018-Feb-16 01:22N 29°08' W 095°10'0 0.0
2018-Feb-16 00:54N 29°08' W 095°10'0 0.0
2018-Feb-16 00:30N 29°08' W 095°10'0 0.0
2018-Feb-15 23:47N 29°08' W 095°10'1 2.4
2018-Feb-15 23:18N 29°09' W 095°09'2 3.7
2018-Feb-15 22:41N 29°10' W 095°07'4 4.4
2018-Feb-15 21:52N 29°12' W 095°03'16 1.2
2018-Feb-15 09:02N 29°19' W 094°47'0 0.0
2018-Feb-15 05:32N 29°19' W 094°47'0 0.1
2018-Feb-15 05:28N 29°19' W 094°47'0 0.0
2018-Feb-15 04:55N 29°19' W 094°47'0 0.0
2018-Feb-15 04:27N 29°19' W 094°47'0 0.0
2018-Feb-15 04:00N 29°19' W 094°47'0 0.0
2018-Feb-15 03:29N 29°19' W 094°47'0 0.0
2018-Feb-15 02:58N 29°19' W 094°47'0 0.0
2018-Feb-15 02:26N 29°19' W 094°47'2 0.6
2018-Feb-14 23:58N 29°21' W 094°47'2 3.6
2018-Feb-14 23:27N 29°22' W 094°48'2 3.5
2018-Feb-14 22:56N 29°24' W 094°49'3 4.2
2018-Feb-14 22:18N 29°26' W 094°50'3 5.2
2018-Feb-14 21:42N 29°29' W 094°52'2 5.3
2018-Feb-14 21:20N 29°31' W 094°53'2 5.2
2018-Feb-14 21:00N 29°32' W 094°54'3 5.8
2018-Feb-14 20:31N 29°35' W 094°56'3 5.7
2018-Feb-14 20:00N 29°37' W 094°57'3 6.1
2018-Feb-14 19:31N 29°40' W 094°59'3 6.2
2018-Feb-14 19:00N 29°42' W 095°01'3 5.3
2018-Feb-14 18:23N 29°45' W 095°04'2 4.3
2018-Feb-14 17:57N 29°46' W 095°05'5 0.1
2018-Feb-13 02:06N 29°42' W 095°01'1 5.9
2018-Feb-13 01:57N 29°42' W 094°60'3 5.9
2018-Feb-13 01:31N 29°40' W 094°58'3 6.2
2018-Feb-13 01:00N 29°37' W 094°57'3 6.4
2018-Feb-13 00:31N 29°34' W 094°55'5 0.3
2018-Feb-12 08:34N 29°30' W 094°52'1 4.7
2018-Feb-12 08:19N 29°31' W 094°53'1 4.6
2018-Feb-12 08:00N 29°32' W 094°54'2 4.9
2018-Feb-12 07:30N 29°34' W 094°56'2 5.0
2018-Feb-12 07:00N 29°36' W 094°57'3 5.2
2018-Feb-12 06:29N 29°39' W 094°58'2 5.0
2018-Feb-12 06:01N 29°41' W 094°59'1 1.4
2018-Feb-12 05:30N 29°41' W 095°00'0 0.0
2018-Feb-12 05:01N 29°41' W 095°00'0 0.0
2018-Feb-12 04:30N 29°41' W 095°00'0 0.0
2018-Feb-12 04:00N 29°41' W 095°00'0 0.1
2018-Feb-12 03:30N 29°41' W 095°00'0 0.0
2018-Feb-12 03:00N 29°41' W 095°00'0 0.0
2018-Feb-12 02:31N 29°41' W 095°00'0 0.0
2018-Feb-12 02:00N 29°41' W 095°00'0 0.0
2018-Feb-12 01:31N 29°41' W 095°00'0 0.9
2018-Feb-12 01:01N 29°41' W 094°60'1 2.4
2018-Feb-12 00:31N 29°40' W 094°59'3 5.5
2018-Feb-12 00:00N 29°38' W 094°58'3 5.9
2018-Feb-11 23:30N 29°35' W 094°56'6 0.4
2018-Feb-11 08:15N 29°30' W 094°52'2 6.2
2018-Feb-11 07:58N 29°31' W 094°53'3 5.8
2018-Feb-11 07:30N 29°34' W 094°55'3 5.6
2018-Feb-11 07:00N 29°36' W 094°57'3 5.7
2018-Feb-11 06:31N 29°39' W 094°58'3 5.1
2018-Feb-11 06:01N 29°41' W 094°59'1 1.4
2018-Feb-11 05:30N 29°41' W 095°00'0 0.0
2018-Feb-11 05:00N 29°41' W 095°00'0 0.0
2018-Feb-11 04:30N 29°41' W 095°00'0 0.0
2018-Feb-11 03:59N 29°41' W 095°00'0 0.0
2018-Feb-11 03:30N 29°41' W 095°00'0 0.0
2018-Feb-11 03:00N 29°41' W 095°00'0 0.0
2018-Feb-11 02:29N 29°41' W 095°00'0 0.0
2018-Feb-11 02:00N 29°41' W 095°00'0 0.0
2018-Feb-11 01:30N 29°41' W 095°00'0 0.0
2018-Feb-11 01:00N 29°41' W 095°00'0 0.0
2018-Feb-11 00:30N 29°41' W 095°00'0 0.0
2018-Feb-11 00:00N 29°41' W 095°00'0 0.0
2018-Feb-10 23:31N 29°41' W 095°00'0 0.0
2018-Feb-10 23:01N 29°41' W 095°00'0 0.0
2018-Feb-10 22:31N 29°41' W 095°00'0 0.0
2018-Feb-10 22:00N 29°41' W 095°00'0 0.0
2018-Feb-10 21:30N 29°41' W 095°00'0 0.0
2018-Feb-10 21:01N 29°41' W 095°00'0 0.0
2018-Feb-10 20:30N 29°41' W 095°00'0 0.0
2018-Feb-10 20:00N 29°41' W 095°00'0 0.0
2018-Feb-10 19:30N 29°41' W 095°00'0 0.6
2018-Feb-10 19:00N 29°41' W 094°60'1 2.1
2018-Feb-10 18:30N 29°40' W 094°59'  

Dump ship's entire track history